Terminal Aerodrome Forecast
Issued by NWS

Home | Current Version | Previous Version | Text Only | Print | Product List | Glossary On
Versions: 1 2 3 4 5 6 7 8 9 10 11 12 13 14 15 16 17 18 19 20 21
265
FTUS43 KILX 171607 AAB
TAFBMI
TAF AMD
KBMI 171607Z 1716/1812 20010KT 6SM -RA OVC060
     FM171900 21008KT P6SM VCSH OVC045
     FM180000 20005KT P6SM OVC035
     FM180300 23006KT 4SM -DZ OVC015
     FM180700 23006KT 3SM -DZ OVC008=

USA.gov is the U.S. government's official web portal to all federal, state and local government web resources and services.